createdAt,value
2022-08-22T00:02:00.549Z,100.00
2022-08-22T00:03:03.866Z,100.00
2022-08-22T00:05:10.396Z,100.00
2022-08-22T00:08:21.717Z,100.00
2022-08-22T00:11:54.926Z,100.00
2022-08-22T00:15:06.090Z,100.00
2022-08-22T00:18:25.104Z,100.00
2022-08-22T00:21:33.697Z,100.00
2022-08-22T00:24:49.573Z,100.00
2022-08-22T00:28:11.092Z,100.00
2022-08-22T00:31:22.013Z,100.00
2022-08-22T00:34:33.251Z,100.00
2022-08-22T00:37:42.970Z,100.00
2022-08-22T00:41:04.284Z,100.00
2022-08-22T00:44:29.964Z,100.00
2022-08-22T00:47:38.251Z,100.00
2022-08-22T00:50:47.126Z,100.00
2022-08-22T00:54:04.512Z,100.00
2022-08-22T00:57:29.889Z,100.00
2022-08-22T01:00:44.142Z,100.00
2022-08-22T01:03:59.134Z,100.00
2022-08-22T01:07:30.562Z,100.00
2022-08-22T01:11:23.494Z,100.00
2022-08-22T01:14:38.511Z,100.00
2022-08-22T01:18:03.017Z,100.00
2022-08-22T01:22:01.458Z,100.00
2022-08-22T01:25:22.493Z,100.00
2022-08-22T01:28:55.207Z,100.00
2022-08-22T01:32:05.605Z,100.00
2022-08-22T01:35:59.892Z,100.00
2022-08-22T01:39:20.884Z,100.00
2022-08-22T01:42:43.583Z,100.00
2022-08-22T01:46:25.118Z,100.00
2022-08-22T01:49:34.802Z,100.00
2022-08-22T01:52:51.677Z,100.00
2022-08-22T01:56:08.036Z,100.00
2022-08-22T01:59:17.625Z,100.00
2022-08-22T02:03:13.934Z,100.00
2022-08-22T02:06:49.584Z,100.00
2022-08-22T02:10:06.530Z,100.00
2022-08-22T02:13:49.616Z,100.00
2022-08-22T02:16:58.008Z,100.00
2022-08-22T02:20:12.475Z,100.00
2022-08-22T02:23:16.060Z,100.00
2022-08-22T02:26:46.774Z,100.00
2022-08-22T02:30:04.687Z,100.00
2022-08-22T02:33:32.679Z,100.00
2022-08-22T02:36:46.746Z,100.00
2022-08-22T02:40:03.204Z,100.00
2022-08-22T02:43:24.397Z,100.00
2022-08-22T02:46:50.208Z,100.00
2022-08-22T02:50:18.180Z,100.00
2022-08-22T02:53:34.137Z,100.00
2022-08-22T02:56:52.562Z,100.00
2022-08-22T03:00:31.918Z,100.00
2022-08-22T03:03:40.732Z,100.00
2022-08-22T03:07:12.893Z,100.00
2022-08-22T03:10:31.469Z,100.00
2022-08-22T03:14:05.334Z,100.00
2022-08-22T03:17:08.912Z,100.00
2022-08-22T03:20:36.913Z,100.00
2022-08-22T03:23:47.667Z,100.00
2022-08-22T03:26:57.482Z,100.00
2022-08-22T03:30:07.583Z,100.00
2022-08-22T03:33:30.450Z,100.00
2022-08-22T03:36:33.771Z,100.00
2022-08-22T03:39:57.562Z,100.00
2022-08-22T03:43:13.883Z,100.00
2022-08-22T03:46:46.231Z,100.00
2022-08-22T03:49:57.664Z,100.00
2022-08-22T03:53:19.021Z,100.00
2022-08-22T03:56:25.349Z,100.00
2022-08-22T03:59:56.318Z,100.00
2022-08-22T04:03:00.323Z,100.00
2022-08-22T04:06:12.721Z,100.00
2022-08-22T04:09:23.400Z,100.00
2022-08-22T04:12:58.694Z,100.00
2022-08-22T04:16:17.561Z,100.00
2022-08-22T04:19:58.778Z,100.00
2022-08-22T04:23:14.169Z,100.00
2022-08-22T04:26:47.041Z,100.00
2022-08-22T04:30:18.911Z,100.00
2022-08-22T04:33:30.490Z,100.00
2022-08-22T04:36:56.127Z,100.00
2022-08-22T04:40:22.636Z,100.00
2022-08-22T04:43:35.441Z,100.00
2022-08-22T04:46:50.202Z,100.00
2022-08-22T04:50:08.405Z,100.00
2022-08-22T04:53:53.525Z,100.00
2022-08-22T04:57:17.074Z,100.00
2022-08-22T05:00:21.517Z,100.00
2022-08-22T05:03:28.948Z,100.00
2022-08-22T05:06:35.318Z,100.00
2022-08-22T05:09:43.821Z,100.00
2022-08-22T05:13:09.987Z,100.00
2022-08-22T05:16:25.686Z,100.00
2022-08-22T05:19:37.702Z,100.00
2022-08-22T05:22:49.683Z,100.00
2022-08-22T05:25:57.384Z,100.00
2022-08-22T05:29:03.885Z,100.00
2022-08-22T05:32:31.483Z,100.00
2022-08-22T05:35:38.337Z,100.00
2022-08-22T05:38:46.474Z,100.00
2022-08-22T05:41:50.065Z,100.00
2022-08-22T05:44:54.512Z,100.00
2022-08-22T05:48:05.945Z,100.00
2022-08-22T05:51:17.574Z,100.00
2022-08-22T05:54:33.469Z,100.00
2022-08-22T05:57:42.320Z,100.00
2022-08-22T06:00:49.277Z,100.00
2022-08-22T06:04:06.905Z,100.00
2022-08-22T06:07:13.131Z,100.00
2022-08-22T06:10:20.189Z,100.00
2022-08-22T06:13:41.511Z,100.00
2022-08-22T06:16:50.414Z,100.00
2022-08-22T06:19:55.514Z,100.00
2022-08-22T06:23:02.709Z,100.00
2022-08-22T06:26:20.645Z,100.00
2022-08-22T06:29:49.311Z,100.00
2022-08-22T06:33:00.996Z,100.00
2022-08-22T06:36:27.783Z,100.00
2022-08-22T06:39:33.873Z,100.00
2022-08-22T06:42:41.572Z,100.00
2022-08-22T06:45:44.750Z,100.00
2022-08-22T06:48:49.669Z,100.00
2022-08-22T06:51:54.267Z,100.00
2022-08-22T06:55:01.816Z,100.00
2022-08-22T06:58:15.555Z,100.00
2022-08-22T07:01:25.887Z,100.00
2022-08-22T07:04:29.508Z,100.00
2022-08-22T07:07:32.851Z,100.00
2022-08-22T07:10:38.184Z,100.00
2022-08-22T07:13:46.718Z,100.00
2022-08-22T07:17:00.377Z,100.00
2022-08-22T07:20:35.956Z,100.00
2022-08-22T07:23:45.222Z,100.00
2022-08-22T07:27:09.092Z,100.00
2022-08-22T07:30:16.982Z,100.00
2022-08-22T07:33:40.957Z,100.00
2022-08-22T07:37:03.349Z,100.00
2022-08-22T07:40:22.524Z,100.00
2022-08-22T07:43:49.661Z,100.00
2022-08-22T07:47:01.440Z,100.00
2022-08-22T07:50:08.118Z,100.00
2022-08-22T07:53:25.950Z,100.00
2022-08-22T07:56:42.415Z,100.00
2022-08-22T07:59:55.948Z,100.00
2022-08-22T08:03:06.027Z,100.00
2022-08-22T08:06:11.560Z,100.00
2022-08-22T08:09:16.105Z,100.00
2022-08-22T08:12:22.339Z,100.00
2022-08-22T08:15:26.332Z,100.00
2022-08-22T08:18:35.310Z,100.00
2022-08-22T08:21:42.977Z,100.00
2022-08-22T08:24:48.469Z,100.00
2022-08-22T08:28:11.615Z,100.00
2022-08-22T08:31:26.083Z,100.00
2022-08-22T08:34:32.574Z,100.00
2022-08-22T08:37:50.304Z,100.00
2022-08-22T08:41:12.617Z,100.00
2022-08-22T08:44:35.813Z,100.00
2022-08-22T08:48:03.681Z,100.00
2022-08-22T08:51:36.175Z,100.00
2022-08-22T08:54:56.254Z,98.81
2022-08-22T08:58:10.440Z,99.65
2022-08-22T09:01:39.338Z,100.00
2022-08-22T09:05:01.941Z,100.00
2022-08-22T09:08:27.647Z,99.19
2022-08-22T09:12:04.307Z,99.65
2022-08-22T09:15:16.881Z,99.42
2022-08-22T09:18:46.517Z,100.00
2022-08-22T09:22:14.609Z,100.00
2022-08-22T09:25:45.771Z,100.00
2022-08-22T09:28:55.940Z,100.00
2022-08-22T09:32:24.843Z,100.00
2022-08-22T09:35:56.586Z,100.00
2022-08-22T09:39:29.163Z,100.00
2022-08-22T09:42:38.347Z,100.00
2022-08-22T09:45:58.512Z,100.00
2022-08-22T09:49:14.125Z,100.00
2022-08-22T09:52:51.363Z,100.00
2022-08-22T09:56:11.571Z,100.00
2022-08-22T09:59:18.779Z,100.00
2022-08-22T10:02:34.854Z,100.00
2022-08-22T10:05:45.099Z,100.00
2022-08-22T10:08:59.058Z,99.52
2022-08-22T10:12:12.864Z,97.73
2022-08-22T10:15:34.242Z,97.89
2022-08-22T10:18:56.170Z,95.57
2022-08-22T10:22:13.592Z,95.88
2022-08-22T10:25:32.127Z,97.61
2022-08-22T10:29:00.751Z,96.49
2022-08-22T10:32:42.967Z,95.79
2022-08-22T10:36:00.851Z,93.78
2022-08-22T10:39:22.595Z,89.62
2022-08-22T10:42:27.980Z,89.58
2022-08-22T10:45:43.834Z,85.36
2022-08-22T10:48:59.089Z,83.46
2022-08-22T10:52:44.050Z,80.53
2022-08-22T10:55:50.711Z,85.23
2022-08-22T10:59:19.517Z,87.32
2022-08-22T11:03:02.429Z,87.08
2022-08-22T11:06:15.103Z,85.97
2022-08-22T11:09:26.411Z,85.11
2022-08-22T11:12:41.708Z,84.48
2022-08-22T11:16:04.135Z,84.61
2022-08-22T11:19:29.726Z,81.27
2022-08-22T11:23:17.756Z,84.14
2022-08-22T11:26:47.253Z,84.70
2022-08-22T11:30:18.496Z,85.30
2022-08-22T11:33:58.379Z,84.64
2022-08-22T11:37:11.019Z,86.55
2022-08-22T11:40:22.044Z,87.23
2022-08-22T11:43:33.118Z,87.61
2022-08-22T11:46:38.665Z,87.32
2022-08-22T11:50:21.881Z,86.14
2022-08-22T11:53:46.168Z,87.52
2022-08-22T11:56:55.160Z,87.96
2022-08-22T12:00:34.971Z,86.63
2022-08-22T12:03:55.774Z,86.96
2022-08-22T12:07:27.350Z,86.21
2022-08-22T12:10:35.553Z,86.41
2022-08-22T12:14:06.931Z,85.64
2022-08-22T12:17:55.765Z,83.84
2022-08-22T12:21:28.767Z,82.72
2022-08-22T12:24:48.545Z,82.36
2022-08-22T12:28:00.383Z,81.29
2022-08-22T12:31:08.277Z,82.86
2022-08-22T12:34:24.730Z,82.38
2022-08-22T12:37:52.107Z,81.42
2022-08-22T12:41:28.459Z,82.28
2022-08-22T12:44:49.387Z,82.19
2022-08-22T12:48:04.087Z,80.89
2022-08-22T12:51:22.617Z,80.11
2022-08-22T12:54:42.185Z,80.71
2022-08-22T12:58:34.536Z,80.26
2022-08-22T13:01:44.342Z,78.27
2022-08-22T13:04:55.025Z,74.43
2022-08-22T13:08:04.690Z,73.16
2022-08-22T13:11:22.842Z,68.81
2022-08-22T13:14:28.101Z,71.01
2022-08-22T13:17:35.914Z,71.54
2022-08-22T13:20:43.408Z,72.24
2022-08-22T13:23:53.529Z,72.88
2022-08-22T13:27:02.467Z,72.16
2022-08-22T13:30:21.934Z,71.92
2022-08-22T13:33:33.201Z,70.21
2022-08-22T13:36:51.722Z,71.95
2022-08-22T13:40:01.775Z,70.56
2022-08-22T13:43:15.162Z,70.78
2022-08-22T13:46:23.311Z,70.90
2022-08-22T13:49:36.101Z,69.63
2022-08-22T13:52:52.229Z,70.37
2022-08-22T13:56:07.988Z,70.98
2022-08-22T13:59:49.653Z,67.63
2022-08-22T14:03:05.421Z,68.78
2022-08-22T14:06:37.316Z,70.97
2022-08-22T14:09:57.147Z,72.21
2022-08-22T14:13:00.524Z,74.06
2022-08-22T14:16:07.196Z,74.61
2022-08-22T14:19:27.202Z,77.25
2022-08-22T14:22:35.406Z,84.98
2022-08-22T14:25:40.666Z,86.71
2022-08-22T14:28:43.605Z,86.46
2022-08-22T14:32:04.470Z,85.63
2022-08-22T14:35:35.294Z,84.96
2022-08-22T14:38:47.705Z,83.96
2022-08-22T14:41:58.659Z,82.57
2022-08-22T14:45:16.134Z,81.52
2022-08-22T14:48:29.877Z,81.40
2022-08-22T14:51:35.825Z,80.79
2022-08-22T14:54:39.451Z,79.66
2022-08-22T14:57:58.280Z,80.22
2022-08-22T15:01:12.371Z,80.66
2022-08-22T15:04:25.697Z,80.97
2022-08-22T15:07:34.891Z,81.81
2022-08-22T15:10:42.425Z,82.95
2022-08-22T15:14:12.574Z,83.09
2022-08-22T15:18:01.169Z,83.77
2022-08-22T15:21:10.044Z,85.42
2022-08-22T15:24:14.308Z,85.42
2022-08-22T15:27:20.360Z,86.42
2022-08-22T15:30:34.894Z,87.19
2022-08-22T15:33:43.233Z,88.34
2022-08-22T15:37:25.915Z,87.93
2022-08-22T15:40:45.729Z,88.91
2022-08-22T15:43:54.322Z,89.36
2022-08-22T15:47:48.139Z,88.98
2022-08-22T15:51:10.603Z,89.26
2022-08-22T15:54:24.775Z,89.77
2022-08-22T15:57:40.900Z,90.14
2022-08-22T16:01:18.953Z,90.75
2022-08-22T16:04:40.391Z,90.31
2022-08-22T16:07:44.162Z,90.85
2022-08-22T16:11:19.408Z,91.37
2022-08-22T16:14:50.604Z,90.96
2022-08-22T16:17:55.201Z,90.69
2022-08-22T16:20:58.239Z,92.05
2022-08-22T16:24:02.195Z,92.42
2022-08-22T16:27:19.426Z,93.71
2022-08-22T16:30:33.029Z,93.84
2022-08-22T16:33:39.710Z,94.74
2022-08-22T16:36:42.825Z,93.73
2022-08-22T16:40:13.043Z,89.86
2022-08-22T16:43:19.468Z,93.46
2022-08-22T16:46:34.608Z,97.10
2022-08-22T16:50:19.371Z,100.00
2022-08-22T16:53:28.187Z,100.00
2022-08-22T16:56:38.446Z,100.00
2022-08-22T16:59:49.526Z,100.00
2022-08-22T17:02:58.557Z,100.00
2022-08-22T17:06:18.759Z,100.00
2022-08-22T17:09:44.429Z,100.00
2022-08-22T17:13:07.796Z,100.00
2022-08-22T17:16:23.339Z,100.00
2022-08-22T17:20:01.173Z,100.00
2022-08-22T17:23:22.881Z,100.00
2022-08-22T17:26:55.182Z,100.00
2022-08-22T17:30:20.332Z,100.00
2022-08-22T17:33:51.213Z,100.00
2022-08-22T17:37:26.099Z,100.00
2022-08-22T17:41:08.797Z,100.00
2022-08-22T17:44:20.966Z,100.00
2022-08-22T17:47:32.022Z,100.00
2022-08-22T17:50:56.049Z,100.00
2022-08-22T17:54:41.173Z,100.00
2022-08-22T17:57:44.661Z,100.00
2022-08-22T18:00:54.071Z,100.00
2022-08-22T18:04:00.397Z,100.00
2022-08-22T18:07:16.274Z,100.00
2022-08-22T18:10:50.582Z,100.00
2022-08-22T18:14:13.928Z,100.00
2022-08-22T18:17:21.380Z,100.00
2022-08-22T18:20:32.559Z,100.00
2022-08-22T18:24:05.380Z,100.00
2022-08-22T18:27:29.963Z,100.00
2022-08-22T18:30:53.558Z,100.00
2022-08-22T18:34:01.586Z,100.00
2022-08-22T18:37:53.738Z,100.00
2022-08-22T18:41:06.042Z,100.00
2022-08-22T18:44:13.753Z,100.00
2022-08-22T18:47:32.742Z,100.00
2022-08-22T18:50:36.933Z,100.00
2022-08-22T18:53:46.739Z,100.00
2022-08-22T18:57:10.817Z,100.00
2022-08-22T19:00:46.758Z,100.00
2022-08-22T19:04:27.477Z,100.00
2022-08-22T19:07:41.411Z,100.00
2022-08-22T19:11:13.111Z,100.00
2022-08-22T19:14:44.051Z,100.00
2022-08-22T19:18:17.794Z,100.00
2022-08-22T19:21:44.217Z,100.00
2022-08-22T19:25:08.911Z,100.00
2022-08-22T19:28:13.169Z,100.00
2022-08-22T19:31:35.689Z,100.00
2022-08-22T19:34:47.159Z,100.00
2022-08-22T19:38:01.407Z,100.00
2022-08-22T19:41:04.922Z,100.00
2022-08-22T19:44:20.466Z,100.00
2022-08-22T19:47:28.912Z,100.00
2022-08-22T19:50:37.413Z,100.00
2022-08-22T19:54:16.467Z,100.00
2022-08-22T19:57:26.759Z,100.00
2022-08-22T20:00:52.813Z,100.00
2022-08-22T20:03:59.984Z,100.00
2022-08-22T20:07:40.107Z,100.00
2022-08-22T20:11:06.582Z,100.00
2022-08-22T20:14:22.410Z,100.00
2022-08-22T20:17:41.301Z,100.00
2022-08-22T20:21:00.783Z,100.00
2022-08-22T20:24:07.363Z,100.00
2022-08-22T20:27:18.628Z,100.00
2022-08-22T20:30:56.598Z,100.00
2022-08-22T20:34:04.396Z,100.00
2022-08-22T20:37:31.996Z,100.00
2022-08-22T20:41:11.489Z,100.00
2022-08-22T20:44:30.784Z,100.00
2022-08-22T20:47:41.283Z,100.00
2022-08-22T20:50:45.372Z,100.00
2022-08-22T20:53:56.921Z,100.00
2022-08-22T20:57:24.151Z,100.00
2022-08-22T21:00:33.170Z,100.00
2022-08-22T21:03:51.888Z,100.00
2022-08-22T21:07:01.934Z,100.00
2022-08-22T21:10:23.707Z,100.00
2022-08-22T21:13:35.264Z,100.00
2022-08-22T21:16:40.594Z,100.00
2022-08-22T21:19:44.382Z,100.00
2022-08-22T21:22:48.001Z,100.00
2022-08-22T21:26:02.574Z,100.00
2022-08-22T21:29:13.399Z,100.00
2022-08-22T21:32:32.801Z,100.00
2022-08-22T21:35:36.763Z,100.00
2022-08-22T21:39:06.779Z,100.00
2022-08-22T21:42:26.495Z,100.00
2022-08-22T21:45:49.979Z,100.00
2022-08-22T21:49:04.751Z,100.00
2022-08-22T21:52:08.567Z,100.00
2022-08-22T21:55:28.702Z,100.00
2022-08-22T21:58:36.826Z,100.00
2022-08-22T22:01:42.602Z,100.00
2022-08-22T22:04:46.763Z,100.00
2022-08-22T22:07:50.068Z,100.00
2022-08-22T22:10:58.260Z,100.00
2022-08-22T22:14:03.220Z,100.00
2022-08-22T22:17:08.031Z,100.00
2022-08-22T22:20:15.328Z,100.00
2022-08-22T22:23:20.308Z,100.00
2022-08-22T22:26:23.590Z,100.00
2022-08-22T22:29:28.404Z,100.00
2022-08-22T22:32:31.437Z,100.00
2022-08-22T22:35:34.971Z,100.00
2022-08-22T22:38:39.747Z,100.00
2022-08-22T22:41:43.106Z,100.00
2022-08-22T22:44:47.657Z,100.00
2022-08-22T22:47:53.134Z,100.00
2022-08-22T22:50:56.749Z,100.00
2022-08-22T22:54:00.518Z,100.00
2022-08-22T22:57:04.315Z,100.00
2022-08-22T23:00:09.078Z,100.00
2022-08-22T23:03:12.630Z,100.00
2022-08-22T23:06:19.447Z,100.00
2022-08-22T23:09:38.703Z,100.00
2022-08-22T23:12:48.260Z,100.00
2022-08-22T23:15:52.097Z,100.00
2022-08-22T23:18:56.686Z,100.00
2022-08-22T23:22:01.152Z,100.00
2022-08-22T23:25:06.526Z,100.00
2022-08-22T23:28:09.654Z,100.00
2022-08-22T23:31:17.690Z,100.00
2022-08-22T23:34:25.200Z,100.00
2022-08-22T23:37:28.759Z,100.00
2022-08-22T23:40:32.335Z,100.00
2022-08-22T23:43:36.901Z,100.00
2022-08-22T23:46:40.620Z,100.00
2022-08-22T23:49:44.480Z,100.00
2022-08-22T23:52:48.051Z,100.00
2022-08-22T23:55:51.448Z,100.00
2022-08-22T23:58:55.046Z,100.00
